createdAt,value
2024-01-27T00:00:05.639Z,79.50
2024-01-27T00:02:33.796Z,79.70
2024-01-27T00:05:02.052Z,79.60
2024-01-27T00:07:30.330Z,79.40
2024-01-27T00:10:00.332Z,79.40
2024-01-27T00:12:30.411Z,79.40
2024-01-27T00:14:58.910Z,79.50
2024-01-27T00:17:28.996Z,79.60
2024-01-27T00:19:57.523Z,79.80
2024-01-27T00:22:26.137Z,79.80
2024-01-27T00:24:54.599Z,79.80
2024-01-27T00:27:22.849Z,79.80
2024-01-27T00:29:52.757Z,79.80
2024-01-27T00:32:21.236Z,79.80
2024-01-27T00:34:49.767Z,79.50
2024-01-27T00:37:18.913Z,79.60
2024-01-27T00:39:47.688Z,80.00
2024-01-27T00:42:16.001Z,79.60
2024-01-27T00:44:44.627Z,79.50
2024-01-27T00:47:14.313Z,79.60
2024-01-27T00:49:42.954Z,79.70
2024-01-27T00:52:11.178Z,79.80
2024-01-27T00:54:39.338Z,79.70
2024-01-27T00:57:07.916Z,79.60
2024-01-27T00:59:36.388Z,79.60
2024-01-27T01:02:04.771Z,79.50
2024-01-27T01:04:34.640Z,79.60
2024-01-27T01:07:03.007Z,79.40
2024-01-27T01:09:31.649Z,79.80
2024-01-27T01:11:59.940Z,79.80
2024-01-27T01:14:28.419Z,79.80
2024-01-27T01:16:56.613Z,79.60
2024-01-27T01:19:24.874Z,79.60
2024-01-27T01:21:54.797Z,79.70
2024-01-27T01:24:23.025Z,79.80
2024-01-27T01:26:51.521Z,79.90
2024-01-27T01:29:19.678Z,80.10
2024-01-27T01:31:48.135Z,80.10
2024-01-27T01:34:17.209Z,80.90
2024-01-27T01:36:46.424Z,80.00
2024-01-27T01:39:16.380Z,80.10
2024-01-27T01:41:44.764Z,80.10
2024-01-27T01:44:13.245Z,79.60
2024-01-27T01:46:41.506Z,79.40
2024-01-27T01:49:10.477Z,79.60
2024-01-27T01:51:39.120Z,79.60
2024-01-27T01:54:09.252Z,79.40
2024-01-27T01:56:39.754Z,79.60
2024-01-27T01:59:08.236Z,79.90
2024-01-27T02:01:36.719Z,80.00
2024-01-27T02:04:06.974Z,79.90
2024-01-27T02:06:35.612Z,80.10
2024-01-27T02:09:04.028Z,79.80
2024-01-27T02:11:32.578Z,80.10
2024-01-27T02:14:02.456Z,80.00
2024-01-27T02:16:30.615Z,79.90
2024-01-27T02:18:59.297Z,79.30
2024-01-27T02:21:27.569Z,79.60
2024-01-27T02:23:55.819Z,79.50
2024-01-27T02:26:25.699Z,79.50
2024-01-27T02:28:53.832Z,79.80
2024-01-27T02:31:22.378Z,80.10
2024-01-27T02:33:50.919Z,80.70
2024-01-27T02:36:19.212Z,79.80
2024-01-27T02:38:47.441Z,79.90
2024-01-27T02:41:16.182Z,80.10
2024-01-27T02:43:46.051Z,79.80
2024-01-27T02:46:16.817Z,79.60
2024-01-27T02:48:45.507Z,79.60
2024-01-27T02:51:14.170Z,79.60
2024-01-27T02:53:42.687Z,79.50
2024-01-27T02:56:11.308Z,79.40
2024-01-27T02:58:39.522Z,79.60
2024-01-27T03:01:09.153Z,79.60
2024-01-27T03:03:37.961Z,79.80
2024-01-27T03:06:07.154Z,79.70
2024-01-27T03:08:35.534Z,79.60
2024-01-27T03:11:03.961Z,79.40
2024-01-27T03:13:32.379Z,79.70
2024-01-27T03:16:00.524Z,79.70
2024-01-27T03:18:30.607Z,79.50
2024-01-27T03:20:58.815Z,79.70
2024-01-27T03:23:27.287Z,79.90
2024-01-27T03:25:55.733Z,79.90
2024-01-27T03:28:24.241Z,79.70
2024-01-27T03:30:52.384Z,79.80
2024-01-27T03:33:20.678Z,79.60
2024-01-27T03:35:50.689Z,79.80
2024-01-27T03:38:18.937Z,79.70
2024-01-27T03:40:47.197Z,79.80
2024-01-27T03:43:15.704Z,79.80
2024-01-27T03:45:44.026Z,79.90
2024-01-27T03:48:12.672Z,79.80
2024-01-27T03:50:40.926Z,79.60
2024-01-27T03:53:10.781Z,79.60
2024-01-27T03:55:39.088Z,79.70
2024-01-27T03:58:07.264Z,79.50
2024-01-27T04:00:35.536Z,79.50
2024-01-27T04:03:04.270Z,79.40
2024-01-27T04:05:32.988Z,79.30
2024-01-27T04:08:01.154Z,79.30
2024-01-27T04:10:30.997Z,79.70
2024-01-27T04:12:59.228Z,79.60
2024-01-27T04:15:27.427Z,79.50
2024-01-27T04:17:57.056Z,79.60
2024-01-27T04:20:25.331Z,79.50
2024-01-27T04:22:53.904Z,79.50
2024-01-27T04:25:22.309Z,79.90
2024-01-27T04:27:52.118Z,80.00
2024-01-27T04:30:20.770Z,80.10
2024-01-27T04:32:50.733Z,80.20
2024-01-27T04:35:18.946Z,79.90
2024-01-27T04:37:47.566Z,79.70
2024-01-27T04:40:16.716Z,80.00
2024-01-27T04:42:45.116Z,80.00
2024-01-27T04:45:17.598Z,80.10
2024-01-27T04:47:46.238Z,80.20
2024-01-27T04:50:14.639Z,80.40
2024-01-27T04:52:43.228Z,80.40
2024-01-27T04:55:11.500Z,80.30
2024-01-27T04:57:39.764Z,80.20
2024-01-27T05:00:13.664Z,80.20
2024-01-27T05:02:44.940Z,80.40
2024-01-27T05:05:13.320Z,80.00
2024-01-27T05:07:41.792Z,79.80
2024-01-27T05:10:13.306Z,79.60
2024-01-27T05:12:41.614Z,79.50
2024-01-27T05:15:11.180Z,79.60
2024-01-27T05:17:39.433Z,79.80
2024-01-27T05:20:10.373Z,80.10
2024-01-27T05:22:38.796Z,80.20
2024-01-27T05:25:07.807Z,81.00
2024-01-27T05:27:36.352Z,80.10
2024-01-27T05:30:04.876Z,79.90
2024-01-27T05:32:32.367Z,79.70
2024-01-27T05:35:00.593Z,79.70
2024-01-27T05:37:30.421Z,79.50
2024-01-27T05:39:58.562Z,79.50
2024-01-27T05:42:27.486Z,79.60
2024-01-27T05:44:55.961Z,79.50
2024-01-27T05:47:24.433Z,79.70
2024-01-27T05:49:52.686Z,79.90
2024-01-27T05:52:25.027Z,79.90
2024-01-27T05:54:55.454Z,80.00
2024-01-27T05:57:24.047Z,80.10
2024-01-27T05:59:52.276Z,80.30
2024-01-27T06:02:20.448Z,80.40
2024-01-27T06:04:49.009Z,80.20
2024-01-27T06:07:17.313Z,80.30
2024-01-27T06:09:45.602Z,80.20
2024-01-27T06:12:15.198Z,80.20
2024-01-27T06:14:44.169Z,80.30
2024-01-27T06:17:12.333Z,80.40
2024-01-27T06:19:41.054Z,80.40
2024-01-27T06:22:09.425Z,80.20
2024-01-27T06:24:37.917Z,80.20
2024-01-27T06:27:06.375Z,80.20
2024-01-27T06:29:36.225Z,80.50
2024-01-27T06:32:04.948Z,80.80
2024-01-27T06:34:35.022Z,80.70
2024-01-27T06:37:03.954Z,80.60
2024-01-27T06:39:32.458Z,80.50
2024-01-27T06:42:00.723Z,80.30
2024-01-27T06:44:28.880Z,80.50
2024-01-27T06:46:58.726Z,80.40
2024-01-27T06:49:27.336Z,80.80
2024-01-27T06:51:55.827Z,80.90
2024-01-27T06:54:24.036Z,80.80
2024-01-27T06:56:52.553Z,80.90
2024-01-27T06:59:21.058Z,80.80
2024-01-27T07:01:49.696Z,80.60
2024-01-27T07:04:19.553Z,80.50
2024-01-27T07:06:49.035Z,80.80
2024-01-27T07:09:17.667Z,80.60
2024-01-27T07:11:46.982Z,80.40
2024-01-27T07:14:15.698Z,80.40
2024-01-27T07:16:44.116Z,80.40
2024-01-27T07:19:13.082Z,80.60
2024-01-27T07:21:42.788Z,80.60
2024-01-27T07:24:11.102Z,80.80
2024-01-27T07:26:39.252Z,81.00
2024-01-27T07:29:07.756Z,80.70
2024-01-27T07:31:36.425Z,81.00
2024-01-27T07:34:07.786Z,81.40
2024-01-27T07:36:36.027Z,82.40
2024-01-27T07:39:06.646Z,81.50
2024-01-27T07:41:34.837Z,81.80
2024-01-27T07:44:10.677Z,81.30
2024-01-27T07:46:38.892Z,81.50
2024-01-27T07:49:08.280Z,81.50
2024-01-27T07:51:36.895Z,81.40
2024-01-27T07:54:06.670Z,81.50
2024-01-27T07:56:35.084Z,81.50
2024-01-27T07:59:03.301Z,81.60
2024-01-27T08:01:31.608Z,81.90
2024-01-27T08:04:00.203Z,81.90
2024-01-27T08:06:31.348Z,81.60
2024-01-27T08:09:00.615Z,81.40
2024-01-27T08:11:32.841Z,81.60
2024-01-27T08:14:02.889Z,81.70
2024-01-27T08:16:31.316Z,81.80
2024-01-27T08:18:59.723Z,81.80
2024-01-27T08:21:28.366Z,81.80
2024-01-27T08:23:56.741Z,82.00
2024-01-27T08:26:25.225Z,82.30
2024-01-27T08:28:55.648Z,82.10
2024-01-27T08:31:24.222Z,82.10
2024-01-27T08:33:53.478Z,81.90
2024-01-27T08:36:22.167Z,81.90
2024-01-27T08:38:50.409Z,81.90
2024-01-27T08:41:18.950Z,82.10
2024-01-27T08:43:47.433Z,82.10
2024-01-27T08:46:18.825Z,82.20
2024-01-27T08:48:47.123Z,82.30
2024-01-27T08:51:17.363Z,82.10
2024-01-27T08:53:50.296Z,81.80
2024-01-27T08:56:19.319Z,82.10
2024-01-27T08:58:48.811Z,82.30
2024-01-27T09:01:19.862Z,82.70
2024-01-27T09:03:48.556Z,82.90
2024-01-27T09:06:18.197Z,83.00
2024-01-27T09:08:47.036Z,82.90
2024-01-27T09:11:15.497Z,82.50
2024-01-27T09:13:45.820Z,82.30
2024-01-27T09:16:15.989Z,82.30
2024-01-27T09:18:45.770Z,82.30
2024-01-27T09:21:16.193Z,82.10
2024-01-27T09:23:44.670Z,81.90
2024-01-27T09:26:13.545Z,81.50
2024-01-27T09:28:44.781Z,81.70
2024-01-27T09:31:13.031Z,81.90
2024-01-27T09:33:41.291Z,81.90
2024-01-27T09:36:10.957Z,82.00
2024-01-27T09:38:39.439Z,82.10
2024-01-27T09:41:08.047Z,81.80
2024-01-27T09:43:37.656Z,81.60
2024-01-27T09:46:06.709Z,81.40
2024-01-27T09:48:35.733Z,81.70
2024-01-27T09:51:05.624Z,81.70
2024-01-27T09:53:35.564Z,81.70
2024-01-27T09:56:06.294Z,81.60
2024-01-27T09:58:34.606Z,81.50
2024-01-27T10:01:04.008Z,81.30
2024-01-27T10:03:34.114Z,81.40
2024-01-27T10:06:04.113Z,81.10
2024-01-27T10:08:32.762Z,81.00
2024-01-27T10:11:08.695Z,81.10
2024-01-27T10:13:37.006Z,81.00
2024-01-27T10:16:06.505Z,80.70
2024-01-27T10:18:35.514Z,80.70
2024-01-27T10:21:15.288Z,81.00
2024-01-27T10:23:43.616Z,80.60
2024-01-27T10:26:13.832Z,80.70
2024-01-27T10:28:43.599Z,80.60
2024-01-27T10:31:12.988Z,80.80
2024-01-27T10:33:41.610Z,80.70
2024-01-27T10:36:11.065Z,80.30
2024-01-27T10:38:41.127Z,80.20
2024-01-27T10:41:12.863Z,80.20
2024-01-27T10:43:41.992Z,79.80
2024-01-27T10:46:12.408Z,79.60
2024-01-27T10:48:42.350Z,79.10
2024-01-27T10:51:11.985Z,78.80
2024-01-27T10:53:42.346Z,79.50
2024-01-27T10:56:12.379Z,79.00
2024-01-27T10:58:43.532Z,78.70
2024-01-27T11:01:13.594Z,78.80
2024-01-27T11:03:43.191Z,79.00
2024-01-27T11:06:11.927Z,78.60
2024-01-27T11:08:43.962Z,78.80
2024-01-27T11:11:14.484Z,78.80
2024-01-27T11:13:43.006Z,78.70
2024-01-27T11:16:18.695Z,78.70
2024-01-27T11:18:47.589Z,78.20
2024-01-27T11:21:17.482Z,78.40
2024-01-27T11:23:48.658Z,78.10
2024-01-27T11:26:24.319Z,77.80
2024-01-27T11:28:53.140Z,77.50
2024-01-27T11:31:22.573Z,77.90
2024-01-27T11:33:53.785Z,77.80
2024-01-27T11:36:25.208Z,77.50
2024-01-27T11:38:55.422Z,77.60
2024-01-27T11:41:29.573Z,77.90
2024-01-27T11:43:58.786Z,76.80
2024-01-27T11:46:34.218Z,76.90
2024-01-27T11:49:02.738Z,76.50
2024-01-27T11:51:31.018Z,76.60
2024-01-27T11:53:59.304Z,76.80
2024-01-27T11:56:29.779Z,76.80
2024-01-27T11:58:57.895Z,75.80
2024-01-27T12:01:26.563Z,76.50
2024-01-27T12:03:54.980Z,76.40
2024-01-27T12:06:23.703Z,75.50
2024-01-27T12:08:54.970Z,76.40
2024-01-27T12:11:25.363Z,76.80
2024-01-27T12:13:55.782Z,76.00
2024-01-27T12:16:25.169Z,76.10
2024-01-27T12:18:56.697Z,75.50
2024-01-27T12:21:26.225Z,75.30
2024-01-27T12:23:56.048Z,75.10
2024-01-27T12:26:25.242Z,75.50
2024-01-27T12:28:56.989Z,74.50
2024-01-27T12:31:26.004Z,74.80
2024-01-27T12:33:57.203Z,75.00
2024-01-27T12:36:26.207Z,74.60
2024-01-27T12:38:59.682Z,74.30
2024-01-27T12:41:29.208Z,74.90
2024-01-27T12:43:59.616Z,74.70
2024-01-27T12:46:29.414Z,73.70
2024-01-27T12:48:58.180Z,73.60
2024-01-27T12:51:26.617Z,73.70
2024-01-27T12:53:55.126Z,74.50
2024-01-27T12:56:23.406Z,74.40
2024-01-27T12:58:52.628Z,74.50
2024-01-27T13:01:22.236Z,74.30
2024-01-27T13:03:52.502Z,74.50
2024-01-27T13:06:22.046Z,74.30
2024-01-27T13:08:50.751Z,74.20
2024-01-27T13:11:19.145Z,74.30
2024-01-27T13:13:50.585Z,74.00
2024-01-27T13:16:19.397Z,73.40
2024-01-27T13:18:49.542Z,71.80
2024-01-27T13:21:18.076Z,72.30
2024-01-27T13:23:46.723Z,73.10
2024-01-27T13:26:18.784Z,73.60
2024-01-27T13:28:50.944Z,73.70
2024-01-27T13:31:20.118Z,73.50
2024-01-27T13:33:50.242Z,74.20
2024-01-27T13:36:19.645Z,73.60
2024-01-27T13:38:48.715Z,73.40
2024-01-27T13:41:18.904Z,71.80
2024-01-27T13:43:47.416Z,71.00
2024-01-27T13:46:16.035Z,71.80
2024-01-27T13:48:44.646Z,71.80
2024-01-27T13:51:14.551Z,72.10
2024-01-27T13:53:47.222Z,72.00
2024-01-27T13:56:16.727Z,72.50
2024-01-27T13:58:45.446Z,72.10
2024-01-27T14:01:13.645Z,72.10
2024-01-27T14:03:42.109Z,72.00
2024-01-27T14:06:14.440Z,71.70
2024-01-27T14:08:44.376Z,70.80
2024-01-27T14:11:12.859Z,70.80
2024-01-27T14:13:41.024Z,70.90
2024-01-27T14:16:09.494Z,70.90
2024-01-27T14:18:37.910Z,70.60
2024-01-27T14:21:06.872Z,70.00
2024-01-27T14:23:35.039Z,69.60
2024-01-27T14:26:04.959Z,68.20
2024-01-27T14:28:33.457Z,68.70
2024-01-27T14:31:01.557Z,69.10
2024-01-27T14:33:30.157Z,69.30
2024-01-27T14:35:58.401Z,69.40
2024-01-27T14:38:26.594Z,69.10
2024-01-27T14:40:55.270Z,68.60
2024-01-27T14:43:24.907Z,68.70
2024-01-27T14:45:53.488Z,67.60
2024-01-27T14:48:22.028Z,67.60
2024-01-27T14:50:54.238Z,67.80
2024-01-27T14:53:22.431Z,67.00
2024-01-27T14:55:50.975Z,66.00
2024-01-27T14:58:19.489Z,66.60
2024-01-27T15:00:53.881Z,67.10
2024-01-27T15:03:23.611Z,67.20
2024-01-27T15:05:52.238Z,67.30
2024-01-27T15:08:21.465Z,67.30
2024-01-27T15:10:49.675Z,67.40
2024-01-27T15:13:21.833Z,67.60
2024-01-27T15:15:51.481Z,67.30
2024-01-27T15:18:20.185Z,66.80
2024-01-27T15:20:48.802Z,66.80
2024-01-27T15:23:17.321Z,67.20
2024-01-27T15:25:45.869Z,67.10
2024-01-27T15:28:14.292Z,67.00
2024-01-27T15:30:43.276Z,67.00
2024-01-27T15:33:13.471Z,67.60
2024-01-27T15:35:41.967Z,68.10
2024-01-27T15:38:11.208Z,68.50
2024-01-27T15:40:39.639Z,68.40
2024-01-27T15:43:08.816Z,68.40
2024-01-27T15:45:37.390Z,68.90
2024-01-27T15:48:05.978Z,69.30
2024-01-27T15:50:35.875Z,69.30
2024-01-27T15:53:04.571Z,69.10
2024-01-27T15:55:34.575Z,69.40
2024-01-27T15:58:03.356Z,69.70
2024-01-27T16:00:31.853Z,69.80
2024-01-27T16:03:00.381Z,69.60
2024-01-27T16:05:28.556Z,69.60
2024-01-27T16:07:58.364Z,69.50
2024-01-27T16:10:26.534Z,69.50
2024-01-27T16:12:55.054Z,70.00
2024-01-27T16:15:23.257Z,70.20
2024-01-27T16:17:52.584Z,70.00
2024-01-27T16:20:20.923Z,70.10
2024-01-27T16:25:36.158Z,70.10
2024-01-27T16:28:04.323Z,70.50
2024-01-27T16:30:32.777Z,70.40
2024-01-27T16:33:01.043Z,70.30
2024-01-27T16:35:29.530Z,70.30
2024-01-27T16:37:57.685Z,70.70
2024-01-27T16:40:26.100Z,70.70
2024-01-27T16:42:55.877Z,71.10
2024-01-27T16:45:24.033Z,71.40
2024-01-27T16:47:52.223Z,71.70
2024-01-27T16:50:20.793Z,71.90
2024-01-27T16:52:49.379Z,71.90
2024-01-27T16:55:18.265Z,71.70
2024-01-27T16:57:46.525Z,71.80
2024-01-27T17:00:17.130Z,72.00
2024-01-27T17:02:45.984Z,72.20
2024-01-27T17:05:14.528Z,72.20
2024-01-27T17:07:43.976Z,72.40
2024-01-27T17:10:12.068Z,72.20
2024-01-27T17:12:40.371Z,72.30
2024-01-27T17:15:11.918Z,72.40
2024-01-27T17:17:42.575Z,72.40
2024-01-27T17:20:11.416Z,72.30
2024-01-27T17:22:39.555Z,72.40
2024-01-27T17:25:09.482Z,72.60
2024-01-27T17:27:37.798Z,72.90
2024-01-27T17:30:10.869Z,73.10
2024-01-27T17:32:43.809Z,73.10
2024-01-27T17:35:13.986Z,72.90
2024-01-27T17:37:42.463Z,72.90
2024-01-27T17:40:11.879Z,72.80
2024-01-27T17:42:40.486Z,73.00
2024-01-27T17:45:09.465Z,72.90
2024-01-27T17:47:38.579Z,72.90
2024-01-27T17:50:08.230Z,73.00
2024-01-27T17:52:40.445Z,73.50
2024-01-27T17:55:11.570Z,73.50
2024-01-27T17:57:40.384Z,73.50
2024-01-27T18:00:11.549Z,73.50
2024-01-27T18:02:40.298Z,73.80
2024-01-27T18:05:10.490Z,73.80
2024-01-27T18:07:40.278Z,73.80
2024-01-27T18:10:10.345Z,74.00
2024-01-27T18:12:42.404Z,74.20
2024-01-27T18:15:12.089Z,74.30
2024-01-27T18:17:40.490Z,74.50
2024-01-27T18:20:11.214Z,74.60
2024-01-27T18:22:41.134Z,74.60
2024-01-27T18:25:10.051Z,74.50
2024-01-27T18:27:43.266Z,74.70
2024-01-27T18:30:14.179Z,74.40
2024-01-27T18:32:44.288Z,74.40
2024-01-27T18:35:14.063Z,74.40
2024-01-27T18:37:44.007Z,74.60
2024-01-27T18:40:12.932Z,74.60
2024-01-27T18:42:41.122Z,74.80
2024-01-27T18:45:11.143Z,74.80
2024-01-27T18:47:43.720Z,74.70
2024-01-27T18:50:13.410Z,75.00
2024-01-27T18:52:43.458Z,75.20
2024-01-27T18:55:13.231Z,75.40
2024-01-27T18:57:41.435Z,75.30
2024-01-27T19:00:11.126Z,75.20
2024-01-27T19:02:39.357Z,75.20
2024-01-27T19:05:09.367Z,75.00
2024-01-27T19:07:39.052Z,75.00
2024-01-27T19:10:09.667Z,75.00
2024-01-27T19:12:38.271Z,75.00
2024-01-27T19:15:07.268Z,75.00
2024-01-27T19:17:35.888Z,75.20
2024-01-27T19:20:03.356Z,75.40
2024-01-27T19:22:31.924Z,75.60
2024-01-27T19:25:00.341Z,75.60
2024-01-27T19:27:31.831Z,75.60
2024-01-27T19:30:00.307Z,75.80
2024-01-27T19:32:28.899Z,76.10
2024-01-27T19:34:57.236Z,76.00
2024-01-27T19:37:25.582Z,76.00
2024-01-27T19:39:53.716Z,76.00
2024-01-27T19:42:21.952Z,76.10
2024-01-27T19:44:51.581Z,76.10
2024-01-27T19:47:19.774Z,76.30
2024-01-27T19:49:48.105Z,76.30
2024-01-27T19:52:18.181Z,76.20
2024-01-27T19:54:46.539Z,76.10
2024-01-27T19:57:15.345Z,76.20
2024-01-27T19:59:43.566Z,76.30
2024-01-27T20:02:13.889Z,76.20
2024-01-27T20:04:44.054Z,76.20
2024-01-27T20:07:12.385Z,76.30
2024-01-27T20:09:41.604Z,76.20
2024-01-27T20:12:10.200Z,76.30
2024-01-27T20:14:38.427Z,76.30
2024-01-27T20:17:06.921Z,76.40
2024-01-27T20:19:37.257Z,76.20
2024-01-27T20:22:06.727Z,76.00
2024-01-27T20:24:35.579Z,76.00
2024-01-27T20:27:04.035Z,76.00
2024-01-27T20:29:32.522Z,76.10
2024-01-27T20:32:02.915Z,76.00
2024-01-27T20:34:32.982Z,76.00
2024-01-27T20:37:02.626Z,75.90
2024-01-27T20:39:32.405Z,76.00
2024-01-27T20:42:00.932Z,76.30
2024-01-27T20:44:29.078Z,76.40
2024-01-27T20:46:58.143Z,76.50
2024-01-27T20:49:26.418Z,76.60
2024-01-27T20:51:54.959Z,76.90
2024-01-27T20:54:24.846Z,77.00
2024-01-27T20:56:55.229Z,77.30
2024-01-27T20:59:23.725Z,77.40
2024-01-27T21:01:53.037Z,77.30
2024-01-27T21:04:26.279Z,77.10
2024-01-27T21:06:54.746Z,76.90
2024-01-27T21:09:26.419Z,76.90
2024-01-27T21:11:54.604Z,77.10
2024-01-27T21:14:22.871Z,77.20
2024-01-27T21:16:53.062Z,77.30
2024-01-27T21:19:21.309Z,77.30
2024-01-27T21:21:50.013Z,77.30
2024-01-27T21:24:18.254Z,77.20
2024-01-27T21:26:47.903Z,77.10
2024-01-27T21:29:16.188Z,77.10
2024-01-27T21:31:44.614Z,77.00
2024-01-27T21:34:12.945Z,77.00
2024-01-27T21:36:41.660Z,77.10
2024-01-27T21:39:11.311Z,76.50
2024-01-27T21:41:39.815Z,77.70
2024-01-27T21:44:09.355Z,77.80
2024-01-27T21:46:37.505Z,77.60
2024-01-27T21:49:08.750Z,77.50
2024-01-27T21:51:37.615Z,77.60
2024-01-27T21:54:06.321Z,77.50
2024-01-27T21:56:35.964Z,77.50
2024-01-27T21:59:06.571Z,77.70
2024-01-27T22:01:36.264Z,77.70
2024-01-27T22:04:05.168Z,77.70
2024-01-27T22:06:33.917Z,77.80
2024-01-27T22:09:02.479Z,77.80
2024-01-27T22:11:31.344Z,77.90
2024-01-27T22:13:59.772Z,78.10
2024-01-27T22:16:28.035Z,78.30
2024-01-27T22:18:58.021Z,78.20
2024-01-27T22:21:28.777Z,78.10
2024-01-27T22:23:58.789Z,78.10
2024-01-27T22:26:27.307Z,78.10
2024-01-27T22:28:55.416Z,78.10
2024-01-27T22:31:23.830Z,78.10
2024-01-27T22:33:52.420Z,78.30
2024-01-27T22:36:22.105Z,78.50
2024-01-27T22:38:52.360Z,78.60
2024-01-27T22:41:24.117Z,78.70
2024-01-27T22:43:56.760Z,79.00
2024-01-27T22:46:26.131Z,78.90
2024-01-27T22:48:54.670Z,78.80
2024-01-27T22:51:25.882Z,78.60
2024-01-27T22:53:55.554Z,78.40
2024-01-27T22:56:24.118Z,78.20
2024-01-27T22:58:52.318Z,79.00
2024-01-27T23:01:23.418Z,78.10
2024-01-27T23:03:52.041Z,78.20
2024-01-27T23:06:21.012Z,77.90
2024-01-27T23:08:50.761Z,77.90
2024-01-27T23:11:19.187Z,78.20
2024-01-27T23:13:47.725Z,78.40
2024-01-27T23:16:16.659Z,78.50
2024-01-27T23:18:44.954Z,78.60
2024-01-27T23:21:13.345Z,78.50
2024-01-27T23:23:41.495Z,78.50
2024-01-27T23:26:11.341Z,79.40
2024-01-27T23:28:39.807Z,78.50
2024-01-27T23:31:08.231Z,78.50
2024-01-27T23:33:36.502Z,78.60
2024-01-27T23:36:04.950Z,78.80
2024-01-27T23:38:33.365Z,79.00
2024-01-27T23:41:01.487Z,78.80
2024-01-27T23:43:31.065Z,78.80
2024-01-27T23:45:59.258Z,78.90
2024-01-27T23:48:27.923Z,79.00
2024-01-27T23:50:57.097Z,78.80
2024-01-27T23:53:25.850Z,78.60
2024-01-27T23:55:55.357Z,78.80
2024-01-27T23:58:24.646Z,78.90
